Hamilton, KS (66853)

11:54 PM CDT on September 03, 2015 (GMT -0500)
Gridley Fire Station | | Change Station
CLOSE
Current Station
Personal Weather Station
Location: Gridley, KS
Elevation: 1161 ft
Nearby Weather Stations

Elev 1161 ft 38.10 °N, 95.89 °W | Updated 10 minutes ago

Clear
Clear
75.7 °F
Feels Like 76 °F
N
6.0
Wind Variable Wind from SSE
Gusts 9.0 mph

Today
High -- | Low -- °F
--% Chance of Precip.
Yesterday
High -- | Low -- °F
Precip. -- in
6:56 AM 7:51 PM
Waning Gibbous, 63% visible
Pressure 29.87 in
Visibility 10.0 miles
Clouds Clear
Heat Index 76 °F
Dew Point 69 °F
Humidity 81%
Rainfall 0.00 in
Snow Depth Not available.
UV 0 out of 12
Pollen 11.70 out of 12
Air Quality Not available.
Flu Activity Not available.
METAR KEMP 040353Z AUTO 16010KT 10SM CLR 24/20 A2990 RMK AO2 SLP115 T02440200
Pressure 29.87 in
Visibility 10.0 miles
Clouds Clear
Heat Index 76 °F
Dew Point 69 °F
Humidity 81%
Rainfall 0.00 in
Snow Depth Not available.
UV 0 out of 12
Pollen 11.70 out of 12
Air Quality Not available.
Flu Activity Not available.
METAR KEMP 040353Z AUTO 16010KT 10SM CLR 24/20 A2990 RMK AO2 SLP115 T02440200

10-Day Weather Forecast

×

Almanac

Astronomy

Sep. 03, 2015 Rise Set
Actual Time
Civil Twilight
Nautical Twilight
Astronomical Twilight
Moon
Length of Visible Light
Length of Day
Tomorrow will be .
, % of the Moon is Illuminated

Today's Extremes

State Highs State Lows

Community

WunderPhotos

Upload Photos

1,852,129 photos uploaded!

WunderBlogs® & News

Nearby

Air Quality

  Air Quality AQ Index Pollutant
Not available.

Snow Depth

Station Depth Elevation

Earthquake Activity

City Distance Mag. Time & Date
Minimum magnitude displayed is 2.5.

Coastal Water Temperatures

Place Temperature

Stations

Nearby Weather Stations

Station Location Temp. Windchill Dew Point Humidity Wind Precip. Elev Updated Type